Terminal Aerodrome Forecast
Issued by NWS

Home | Current Version | Previous Version | Text Only | Print | Product List | Glossary On
Versions: 1 2 3 4 5 6 7 8 9 10 11 12 13 14 15 16 17 18
000
FTUS42 KFFC 181130
TAFPDK
TAF
KPDK 181130Z 1812/1912 24004KT P6SM SCT120 SCT250
     FM181400 28006KT P6SM SCT030 BKN200
     FM181700 29007KT P6SM VCSH SCT040 BKN120
     FM182100 30008KT P6SM SCT050 SCT250
     FM190100 31005KT P6SM SCT250=

USA.gov is the U.S. government's official web portal to all federal, state and local government web resources and services.